Time;durP1;ratioP1;P1;durP2;ratioP2;P2;SDS_P1;SDS_P2;PMS_P1;PMS_P2;Temp;Humidity;BMP_temperature;BMP_pressure;BME280_temperature;BME280_humidity;BME280_pressure;Samples;Min_cycle;Max_cycle;Signal;HPM_P1;HPM_P2
2021/06/10 00:02:34;;;;;;;3.33;3.03;;;19.00;76.80;;;;;;10497576;28;20223;-25
2021/06/10 00:07:55;;;;;;;2.90;2.70;;;19.00;76.90;;;;;;10496766;28;20196;-26
2021/06/10 00:13:18;;;;;;;3.67;3.23;;;19.00;76.90;;;;;;10496094;28;20703;-26
2021/06/10 00:18:40;;;;;;;3.00;2.80;;;18.90;76.80;;;;;;10487545;28;20258;-24
2021/06/10 00:24:01;;;;;;;3.17;2.93;;;19.00;76.90;;;;;;10495491;28;20259;-25
2021/06/10 00:29:24;;;;;;;3.60;3.30;;;19.00;76.90;;;;;;10497543;28;20200;-29
2021/06/10 00:34:46;;;;;;;3.60;3.33;;;19.00;76.90;;;;;;10457059;28;20221;-25
2021/06/10 00:40:09;;;;;;;3.47;3.17;;;19.00;76.90;;;;;;10495877;28;20675;-33
2021/06/10 00:45:32;;;;;;;3.50;3.20;;;19.00;77.00;;;;;;10495445;28;20188;-25
2021/06/10 00:50:54;;;;;;;3.80;3.50;;;18.90;76.90;;;;;;10488612;28;20281;-27
2021/06/10 00:56:15;;;;;;;3.37;3.17;;;18.90;76.90;;;;;;10495266;28;20223;-25
2021/06/10 01:01:38;;;;;;;3.90;3.60;;;19.00;77.00;;;;;;10496378;28;20216;-29
2021/06/10 01:07:05;;;;;;;3.70;3.40;;;18.90;77.00;;;;;;10494679;28;20722;-26
2021/06/10 01:12:33;;;;;;;3.40;3.17;;;18.90;77.00;;;;;;10457553;28;20216;-26
2021/06/10 01:17:56;;;;;;;3.33;3.03;;;19.00;77.00;;;;;;10494806;28;20203;-25
2021/06/10 01:23:29;;;;;;;3.60;3.30;;;18.90;77.00;;;;;;10493665;28;20219;-25
2021/06/10 01:28:53;;;;;;;3.53;3.23;;;18.90;77.00;;;;;;10489111;28;20293;-32
2021/06/10 01:34:15;;;;;;;3.60;3.30;;;19.00;77.10;;;;;;10494887;28;20262;-25
2021/06/10 01:39:38;;;;;;;3.83;3.53;;;19.00;77.10;;;;;;10494758;28;20184;-25
2021/06/10 01:45:01;;;;;;;3.90;3.60;;;19.00;77.10;;;;;;10463922;28;20215;-32
2021/06/10 01:50:24;;;;;;;3.70;3.40;;;18.90;77.10;;;;;;10493866;28;20196;-25
2021/06/10 01:55:48;;;;;;;3.67;3.37;;;19.00;77.20;;;;;;10493194;28;20216;-27
2021/06/10 02:01:11;;;;;;;4.07;3.40;;;18.90;77.10;;;;;;10493008;28;20261;-25
2021/06/10 02:06:34;;;;;;;3.43;3.13;;;18.90;77.10;;;;;;10462376;28;20627;-24
2021/06/10 02:11:57;;;;;;;3.70;3.40;;;18.90;77.20;;;;;;10491359;28;20224;-25
2021/06/10 02:17:20;;;;;;;3.30;3.00;;;18.90;77.10;;;;;;10493746;28;20188;-27
2021/06/10 02:22:41;;;;;;;3.53;3.23;;;18.90;77.20;;;;;;10493198;28;20208;-25
2021/06/10 02:28:04;;;;;;;4.10;3.80;;;18.90;77.10;;;;;;10483580;28;20207;-26
2021/06/10 02:33:27;;;;;;;3.70;3.40;;;18.90;77.20;;;;;;10494639;28;20224;-25
2021/06/10 02:38:52;;;;;;;3.90;3.60;;;18.90;77.10;;;;;;10484602;28;20224;-25
2021/06/10 02:44:15;;;;;;;3.97;3.67;;;19.00;77.20;;;;;;10460575;28;20204;-28
2021/06/10 02:49:41;;;;;;;4.10;3.80;;;18.90;77.20;;;;;;10492526;28;20201;-27
2021/06/10 02:55:03;;;;;;;3.60;3.30;;;18.90;77.20;;;;;;10490819;28;20224;-25
2021/06/10 03:00:28;;;;;;;3.87;3.57;;;18.90;77.20;;;;;;10492234;28;20193;-22
2021/06/10 03:05:52;;;;;;;3.70;3.40;;;18.90;77.20;;;;;;10491679;28;20230;-27
2021/06/10 03:11:14;;;;;;;3.60;3.30;;;19.00;77.30;;;;;;10491558;28;20362;-28
2021/06/10 03:16:36;;;;;;;3.87;3.57;;;18.90;77.20;;;;;;10578042;22;20219;-24
2021/06/10 03:22:00;;;;;;;3.43;3.23;;;18.90;77.20;;;;;;10606504;27;20209;-25
2021/06/10 03:27:21;;;;;;;3.87;3.57;;;18.90;77.30;;;;;;10593953;27;20242;-23
2021/06/10 03:32:43;;;;;;;4.10;3.80;;;18.90;77.20;;;;;;10578327;28;20241;-25
2021/06/10 03:38:07;;;;;;;3.80;3.50;;;18.90;77.20;;;;;;10582039;27;20223;-22
2021/06/10 03:43:30;;;;;;;3.80;3.50;;;18.90;77.30;;;;;;10594919;27;20194;-23
2021/06/10 03:48:52;;;;;;;3.87;3.57;;;18.90;77.30;;;;;;10585271;27;20201;-23
2021/06/10 03:54:15;;;;;;;3.90;3.60;;;18.90;77.30;;;;;;10620546;27;20218;-23
2021/06/10 03:59:36;;;;;;;4.03;3.73;;;18.90;77.20;;;;;;10554214;27;20235;-23
2021/06/10 04:04:58;;;;;;;3.87;3.47;;;18.90;77.30;;;;;;10615479;27;20709;-23
2021/06/10 04:10:21;;;;;;;4.37;3.90;;;18.90;77.30;;;;;;10581038;27;20205;-24
2021/06/10 04:15:42;;;;;;;3.70;3.40;;;18.90;77.30;;;;;;10577551;27;20230;-23
2021/06/10 04:21:04;;;;;;;3.43;3.13;;;18.90;77.30;;;;;;10586430;27;20729;-23
2021/06/10 04:26:27;;;;;;;3.73;3.43;;;19.00;77.30;;;;;;10615261;27;20215;-22
2021/06/10 04:31:49;;;;;;;3.83;3.53;;;19.00;77.40;;;;;;10570201;27;20195;-23
2021/06/10 04:37:11;;;;;;;4.23;3.83;;;19.00;77.40;;;;;;10607808;27;20215;-24
2021/06/10 04:42:34;;;;;;;4.00;3.60;;;19.00;77.50;;;;;;10559506;28;20210;-24
2021/06/10 04:47:55;;;;;;;3.90;3.50;;;18.90;77.40;;;;;;10587939;27;20218;-24
2021/06/10 04:53:17;;;;;;;3.37;3.17;;;19.00;77.50;;;;;;10591789;27;20207;-23
2021/06/10 04:58:40;;;;;;;4.13;3.83;;;19.00;77.50;;;;;;10575651;27;20570;-24
2021/06/10 05:04:02;;;;;;;4.13;3.20;;;19.00;77.50;;;;;;10534405;27;20244;-23
2021/06/10 05:09:23;;;;;;;3.67;3.37;;;19.00;77.50;;;;;;10578624;28;20198;-24
2021/06/10 05:14:46;;;;;;;3.80;3.50;;;19.00;77.50;;;;;;10589479;27;20225;-26
2021/06/10 05:20:09;;;;;;;3.67;3.37;;;19.00;77.50;;;;;;10616391;27;20217;-24
2021/06/10 05:25:31;;;;;;;3.30;3.10;;;19.00;77.50;;;;;;10609223;27;20674;-25
2021/06/10 05:30:54;;;;;;;3.57;3.27;;;19.00;77.60;;;;;;10541766;27;20577;-25
2021/06/10 05:36:15;;;;;;;3.80;3.50;;;19.00;77.70;;;;;;10583581;27;20211;-25
2021/06/10 05:41:37;;;;;;;3.67;3.37;;;19.00;77.60;;;;;;10577413;27;20194;-26
2021/06/10 05:47:00;;;;;;;3.70;3.40;;;19.00;77.60;;;;;;10532337;28;20248;-24
2021/06/10 05:52:23;;;;;;;3.93;3.63;;;18.90;77.60;;;;;;10534034;28;20196;-24
2021/06/10 05:57:45;;;;;;;3.80;3.50;;;19.00;77.70;;;;;;10574138;27;20260;-24
2021/06/10 06:03:09;;;;;;;3.90;3.60;;;19.00;77.70;;;;;;10570552;27;20662;-24
2021/06/10 06:08:31;;;;;;;3.83;3.53;;;19.00;77.50;;;;;;10529446;28;20217;-24
2021/06/10 06:14:05;;;;;;;6.30;5.73;;;19.00;77.60;;;;;;10517302;28;20226;-26
2021/06/10 06:19:28;;;;;;;8.43;7.63;;;19.00;77.80;;;;;;10558106;28;20195;-24
2021/06/10 06:24:50;;;;;;;8.57;7.87;;;19.10;78.20;;;;;;10576363;28;20725;-25
2021/06/10 06:30:13;;;;;;;8.50;7.57;;;19.10;78.20;;;;;;10576247;28;20210;-23
2021/06/10 06:35:41;;;;;;;9.07;8.27;;;19.10;78.10;;;;;;10571138;28;20219;-24
2021/06/10 06:41:02;;;;;;;7.30;6.67;;;19.20;78.10;;;;;;10588778;28;20210;-24
2021/06/10 06:46:24;;;;;;;6.87;6.27;;;19.20;77.80;;;;;;10575945;28;20260;-24
2021/06/10 06:51:47;;;;;;;7.40;6.70;;;19.20;77.50;;;;;;10574825;28;20761;-24
2021/06/10 06:57:09;;;;;;;7.17;6.57;;;19.20;77.80;;;;;;10610183;27;20214;-24
2021/06/10 07:02:30;;;;;;;7.03;6.43;;;19.20;77.80;;;;;;10625662;27;20668;-24
2021/06/10 07:07:53;;;;;;;6.33;5.50;;;19.20;77.70;;;;;;10614462;27;20581;-24
2021/06/10 07:13:15;;;;;;;6.23;5.73;;;19.20;77.40;;;;;;10592724;27;20253;-24
2021/06/10 07:18:36;;;;;;;6.37;5.80;;;19.30;77.20;;;;;;10582948;28;20199;-23
2021/06/10 07:24:01;;;;;;;5.90;5.40;;;19.30;77.50;;;;;;10592326;27;20741;-24
2021/06/10 07:29:22;;;;;;;6.63;6.03;;;19.30;77.10;;;;;;10624696;27;20205;-24
2021/06/10 07:34:44;;;;;;;7.77;5.97;;;19.30;76.90;;;;;;10596044;27;20705;-25
2021/06/10 07:40:08;;;;;;;7.07;5.13;;;19.30;77.00;;;;;;10581837;28;20198;-23
2021/06/10 07:45:31;;;;;;;5.63;5.07;;;19.30;77.00;;;;;;10580813;28;20207;-24
2021/06/10 07:50:53;;;;;;;5.77;5.20;;;19.30;77.00;;;;;;10580575;27;20202;-24
2021/06/10 07:56:16;;;;;;;6.67;4.90;;;19.30;77.10;;;;;;10565188;28;20238;-23
2021/06/10 08:01:38;;;;;;;5.33;4.87;;;19.30;77.00;;;;;;10568655;27;20194;-24
2021/06/10 08:07:00;;;;;;;5.23;4.73;;;19.30;77.20;;;;;;10610503;27;20222;-25
2021/06/10 08:12:23;;;;;;;5.10;4.60;;;19.30;77.20;;;;;;10578824;27;20194;-25
2021/06/10 08:17:45;;;;;;;5.83;4.63;;;19.30;76.90;;;;;;10621691;27;20757;-26
2021/06/10 08:23:07;;;;;;;4.93;4.43;;;19.30;77.00;;;;;;10622609;27;20201;-24
2021/06/10 08:28:30;;;;;;;5.17;4.67;;;19.30;77.20;;;;;;10600065;27;20225;-24
2021/06/10 08:33:52;;;;;;;4.47;4.10;;;19.30;76.80;;;;;;10544490;28;20640;-26
2021/06/10 08:39:14;;;;;;;6.20;4.53;;;19.30;76.90;;;;;;10574633;28;20202;-23
2021/06/10 08:44:37;;;;;;;4.90;4.50;;;19.30;76.60;;;;;;10547758;28;20578;-24
2021/06/10 08:50:03;;;;;;;5.00;4.53;;;19.30;76.90;;;;;;10537467;28;20233;-25
2021/06/10 08:55:26;;;;;;;4.70;4.30;;;19.40;76.70;;;;;;10569811;27;20214;-24
2021/06/10 09:00:48;;;;;;;4.60;4.20;;;19.50;76.20;;;;;;10616243;27;20202;-24
2021/06/10 09:06:13;;;;;;;4.97;4.47;;;19.50;75.60;;;;;;10566989;28;20215;-24
2021/06/10 09:11:38;;;;;;;4.80;4.37;;;19.60;75.30;;;;;;10555790;28;20562;-24
2021/06/10 09:17:02;;;;;;;5.10;3.87;;;19.60;75.20;;;;;;10573989;22;20446;-23
2021/06/10 09:22:27;;;;;;;5.33;4.27;;;19.60;75.00;;;;;;10574947;28;20199;-22
2021/06/10 09:27:53;;;;;;;4.40;4.00;;;19.70;74.90;;;;;;10566802;28;20250;-22
2021/06/10 09:33:17;;;;;;;4.77;4.23;;;19.70;74.80;;;;;;10561025;28;20219;-22
2021/06/10 09:38:39;;;;;;;4.83;4.23;;;19.70;75.00;;;;;;10564990;28;20226;-22
2021/06/10 09:44:01;;;;;;;4.43;4.03;;;19.70;75.00;;;;;;10570386;28;20226;-22
2021/06/10 09:49:27;;;;;;;4.60;4.20;;;19.70;75.10;;;;;;10572166;28;20198;-23
2021/06/10 09:54:51;;;;;;;4.67;3.73;;;19.70;75.10;;;;;;10554326;28;20734;-22
2021/06/10 10:00:13;;;;;;;4.27;3.93;;;19.80;76.00;;;;;;10565043;28;20199;-22
2021/06/10 10:05:36;;;;;;;4.20;3.90;;;19.70;76.80;;;;;;10575449;28;20222;-22
2021/06/10 10:10:59;;;;;;;5.50;4.13;;;19.60;77.10;;;;;;10571968;28;20187;-22
2021/06/10 10:16:23;;;;;;;4.13;3.80;;;19.60;77.40;;;;;;10551181;28;20227;-23
2021/06/10 10:21:48;;;;;;;3.97;3.60;;;19.60;77.60;;;;;;10575241;28;20202;-24
2021/06/10 10:27:12;;;;;;;4.07;3.77;;;19.50;77.70;;;;;;10567408;28;20204;-22
2021/06/10 10:32:35;;;;;;;4.10;3.80;;;19.50;77.80;;;;;;10561881;27;20199;-23
2021/06/10 10:37:58;;;;;;;3.97;3.67;;;19.50;77.30;;;;;;10568567;28;20219;-23
2021/06/10 10:43:20;;;;;;;3.70;3.40;;;19.50;77.10;;;;;;10547817;28;20187;-23
2021/06/10 10:48:43;;;;;;;4.17;3.80;;;19.50;76.80;;;;;;10569656;28;20222;-23
2021/06/10 10:54:30;;;;;;;3.90;3.60;;;19.50;77.00;;;;;;10580288;28;20734;-23
2021/06/10 10:59:52;;;;;;;3.97;3.67;;;19.50;76.80;;;;;;10572758;28;20200;-23
2021/06/10 11:05:28;;;;;;;3.83;3.53;;;19.50;77.00;;;;;;10541055;28;20216;-23
2021/06/10 11:11:03;;;;;;;4.17;3.87;;;19.40;77.20;;;;;;10581652;28;20197;-24
2021/06/10 11:16:24;;;;;;;3.77;3.37;;;19.40;77.10;;;;;;10556790;28;20215;-23
2021/06/10 11:21:51;;;;;;;4.03;3.73;;;19.50;77.20;;;;;;10581903;28;20201;-26
2021/06/10 11:27:30;;;;;;;4.20;3.80;;;19.40;77.10;;;;;;10584341;28;20218;-23
2021/06/10 11:33:07;;;;;;;4.90;3.53;;;19.40;77.10;;;;;;10566279;28;20551;-22
2021/06/10 11:38:32;;;;;;;4.17;3.77;;;19.40;76.80;;;;;;10571141;28;20211;-22
2021/06/10 11:43:56;;;;;;;4.10;3.80;;;19.40;77.40;;;;;;10546747;28;20282;-23
2021/06/10 11:49:18;;;;;;;3.93;3.30;;;19.50;76.90;;;;;;10540750;28;20312;-25
2021/06/10 11:55:00;;;;;;;3.80;3.50;;;19.50;77.30;;;;;;10559064;28;20210;-22
2021/06/10 12:00:31;;;;;;;3.60;3.30;;;19.50;77.00;;;;;;10576269;28;20206;-22
2021/06/10 12:05:55;;;;;;;4.10;3.67;;;19.50;77.00;;;;;;10576935;28;20226;-23
2021/06/10 12:11:17;;;;;;;3.63;3.33;;;19.40;77.50;;;;;;10538660;28;20195;-23
2021/06/10 12:16:40;;;;;;;4.03;3.73;;;19.50;77.70;;;;;;10538792;28;20251;-22
2021/06/10 12:22:03;;;;;;;4.20;3.77;;;19.40;77.60;;;;;;10538811;28;20202;-23
2021/06/10 12:27:25;;;;;;;4.03;3.70;;;19.40;78.30;;;;;;10539126;28;20219;-22
2021/06/10 12:32:48;;;;;;;3.70;3.40;;;19.40;77.70;;;;;;10561564;28;20199;-22
2021/06/10 12:38:11;;;;;;;3.80;3.50;;;19.50;78.40;;;;;;10566553;28;20214;-20
2021/06/10 12:43:32;;;;;;;3.87;3.53;;;19.40;77.80;;;;;;10567573;28;20194;-22
2021/06/10 12:48:57;;;;;;;4.10;3.80;;;19.40;77.90;;;;;;10576230;28;20268;-22
2021/06/10 12:54:20;;;;;;;4.07;3.77;;;19.40;78.40;;;;;;10576532;28;20218;-23
2021/06/10 12:59:41;;;;;;;4.20;3.80;;;19.50;77.90;;;;;;10578807;28;20203;-20
2021/06/10 13:05:14;;;;;;;3.83;3.53;;;19.50;77.90;;;;;;10579647;28;20299;-24
2021/06/10 13:10:42;;;;;;;3.83;3.53;;;19.50;77.90;;;;;;10544253;28;20347;-23
2021/06/10 13:16:04;;;;;;;3.70;3.40;;;19.50;78.00;;;;;;10572968;28;20221;-23
2021/06/10 13:21:27;;;;;;;3.77;3.47;;;19.40;77.70;;;;;;10575206;28;20567;-23
2021/06/10 13:26:49;;;;;;;4.07;3.70;;;19.50;77.90;;;;;;10557356;28;20223;-22
2021/06/10 13:32:25;;;;;;;3.80;3.50;;;19.50;77.30;;;;;;10562381;28;20195;-22
2021/06/10 13:37:48;;;;;;;3.80;3.50;;;19.50;77.90;;;;;;10569128;28;20283;-23
2021/06/10 13:43:10;;;;;;;4.00;3.70;;;19.50;77.90;;;;;;10559799;28;20207;-22
2021/06/10 13:48:32;;;;;;;3.90;3.60;;;19.40;77.90;;;;;;10567802;28;20242;-22
2021/06/10 13:53:55;;;;;;;4.30;3.90;;;19.40;77.90;;;;;;10567588;28;20263;-23
2021/06/10 13:59:16;;;;;;;3.70;3.40;;;19.50;78.00;;;;;;10570064;28;20206;-23
2021/06/10 14:04:38;;;;;;;4.00;3.60;;;19.40;78.00;;;;;;10536570;28;20944;-23
2021/06/10 14:10:01;;;;;;;3.57;3.27;;;19.50;77.60;;;;;;10535755;28;20622;-23
2021/06/10 14:15:23;;;;;;;3.47;3.17;;;19.40;77.80;;;;;;10534613;28;20281;-22
2021/06/10 14:20:44;;;;;;;3.37;3.10;;;19.40;77.80;;;;;;10536149;28;20193;-23
2021/06/10 14:26:07;;;;;;;4.80;3.63;;;19.40;77.80;;;;;;10533198;28;20215;-23
2021/06/10 14:37:08;;;;;;;3.30;3.10;;;19.30;77.80;;;;;;10553659;28;20708;-23
2021/06/10 14:42:32;;;;;;;4.17;3.77;;;19.30;77.80;;;;;;10552375;28;20662;-23
2021/06/10 14:47:53;;;;;;;5.10;3.87;;;19.30;77.90;;;;;;10543767;28;20260;-25
2021/06/10 14:53:15;;;;;;;3.80;3.50;;;19.30;77.90;;;;;;10573726;28;20191;-23
2021/06/10 14:58:38;;;;;;;3.53;3.30;;;19.30;78.00;;;;;;10575280;28;20207;-23
2021/06/10 15:03:59;;;;;;;3.90;3.60;;;19.30;78.00;;;;;;10575059;28;20191;-23
2021/06/10 15:09:21;;;;;;;4.07;3.77;;;19.30;78.00;;;;;;10574770;28;20200;-23
2021/06/10 15:14:44;;;;;;;3.73;3.43;;;19.30;78.10;;;;;;10545139;28;20238;-22
2021/06/10 15:20:08;;;;;;;7.23;3.40;;;19.30;78.10;;;;;;10551598;28;20203;-24
2021/06/10 15:25:29;;;;;;;3.40;3.13;;;19.30;78.00;;;;;;10582281;28;20239;-22
2021/06/10 15:30:53;;;;;;;3.57;3.37;;;19.30;78.20;;;;;;10582309;28;20252;-22
2021/06/10 15:36:15;;;;;;;3.70;3.40;;;19.30;77.90;;;;;;10582555;28;20253;-23
2021/06/10 15:41:36;;;;;;;3.40;3.20;;;19.30;77.90;;;;;;10576669;28;20202;-21
2021/06/10 15:46:59;;;;;;;4.07;3.77;;;19.30;78.00;;;;;;10571544;28;20264;-23
2021/06/10 15:52:21;;;;;;;3.37;3.17;;;19.30;78.00;;;;;;10581676;28;20191;-22
2021/06/10 15:57:42;;;;;;;3.83;3.53;;;19.30;78.00;;;;;;10581525;28;20226;-23
2021/06/10 16:03:05;;;;;;;4.10;3.80;;;19.30;78.10;;;;;;10581317;28;20195;-25
2021/06/10 16:08:27;;;;;;;3.80;3.50;;;19.30;78.10;;;;;;10580845;28;20260;-23
2021/06/10 16:13:49;;;;;;;3.50;3.23;;;19.30;78.00;;;;;;10581161;28;20210;-22
2021/06/10 16:19:11;;;;;;;3.93;3.53;;;19.30;78.10;;;;;;10580695;28;20219;-22
2021/06/10 16:24:34;;;;;;;3.83;3.53;;;19.30;78.10;;;;;;10570401;28;20677;-22
2021/06/10 16:29:56;;;;;;;3.67;3.37;;;19.30;78.10;;;;;;10579706;28;20309;-23
2021/06/10 16:35:22;;;;;;;3.77;3.47;;;19.30;78.10;;;;;;10554157;28;20219;-23
2021/06/10 16:40:44;;;;;;;4.27;3.97;;;19.30;78.20;;;;;;10545713;28;20187;-23
2021/06/10 16:46:05;;;;;;;3.57;3.30;;;19.30;78.10;;;;;;10580263;28;20203;-24
2021/06/10 16:51:28;;;;;;;3.97;3.67;;;19.30;78.10;;;;;;10570985;27;20203;-23
2021/06/10 16:56:50;;;;;;;3.77;3.47;;;19.30;78.10;;;;;;10537946;28;20211;-26
2021/06/10 17:02:19;;;;;;;4.07;3.70;;;19.30;78.10;;;;;;10537078;28;20200;-20
2021/06/10 17:07:42;;;;;;;3.60;3.30;;;19.30;78.10;;;;;;10537333;28;20595;-21
2021/06/10 17:13:04;;;;;;;4.00;3.70;;;19.30;78.30;;;;;;10536564;28;20199;-22
2021/06/10 17:18:26;;;;;;;3.77;3.47;;;19.20;78.10;;;;;;10535954;28;20212;-23
2021/06/10 17:23:49;;;;;;;3.83;3.53;;;19.30;78.20;;;;;;10566991;28;20681;-25
2021/06/10 17:29:11;;;;;;;4.37;4.07;;;19.30;78.20;;;;;;10578185;28;20207;-23
2021/06/10 17:34:32;;;;;;;4.30;3.90;;;19.30;78.20;;;;;;10562414;28;20657;-26
2021/06/10 17:39:55;;;;;;;3.90;3.60;;;19.20;78.70;;;;;;10561095;28;20206;-21
2021/06/10 17:45:17;;;;;;;4.10;3.80;;;19.30;78.20;;;;;;10555190;28;20211;-24
2021/06/10 17:50:39;;;;;;;4.13;3.73;;;19.30;78.20;;;;;;10550405;28;20245;-20
2021/06/10 17:56:02;;;;;;;3.83;3.50;;;19.30;78.70;;;;;;10554943;28;20302;-22
2021/06/10 18:01:24;;;;;;;3.73;3.43;;;19.30;78.30;;;;;;10563836;28;20194;-22
2021/06/10 18:06:45;;;;;;;4.17;3.87;;;19.20;78.30;;;;;;10551770;28;20668;-23
2021/06/10 18:12:09;;;;;;;4.20;3.90;;;19.30;77.80;;;;;;10565864;28;20566;-21
2021/06/10 18:17:31;;;;;;;4.10;3.80;;;19.30;77.80;;;;;;10537853;28;20224;-22
2021/06/10 18:22:53;;;;;;;5.97;3.60;;;19.40;77.50;;;;;;10574473;28;20194;-22
2021/06/10 18:28:16;;;;;;;6.00;3.10;;;19.50;77.70;;;;;;10575979;28;20211;-22
2021/06/10 18:33:37;;;;;;;4.00;3.70;;;19.50;77.80;;;;;;10574275;28;20207;-21
2021/06/10 18:39:05;;;;;;;3.70;3.40;;;19.50;78.30;;;;;;10552099;28;20689;-22
2021/06/10 18:44:30;;;;;;;5.10;3.40;;;19.40;78.20;;;;;;10572541;28;20692;-26
2021/06/10 18:49:51;;;;;;;3.80;3.50;;;19.50;78.30;;;;;;10574441;28;20195;-23
2021/06/10 18:55:15;;;;;;;3.43;3.17;;;19.40;78.10;;;;;;10572867;28;20264;-25
2021/06/10 19:00:38;;;;;;;3.50;3.20;;;19.40;78.30;;;;;;10575706;28;20604;-22
2021/06/10 19:06:00;;;;;;;3.50;3.17;;;19.40;78.20;;;;;;10579791;28;20211;-25
2021/06/10 19:11:21;;;;;;;3.40;3.10;;;19.40;78.20;;;;;;10581315;28;20191;-21
2021/06/10 19:16:44;;;;;;;4.20;3.67;;;19.40;78.10;;;;;;10577685;28;20222;-22
2021/06/10 19:22:06;;;;;;;6.20;3.60;;;19.40;78.50;;;;;;10580279;28;20191;-24
2021/06/10 19:27:28;;;;;;;3.70;3.40;;;19.40;78.30;;;;;;10580691;28;20210;-23
2021/06/10 19:32:52;;;;;;;5.03;3.57;;;19.40;78.50;;;;;;10580974;28;20191;-21
2021/06/10 19:38:15;;;;;;;5.27;3.50;;;19.40;78.40;;;;;;10548745;28;20246;-24
2021/06/10 19:43:37;;;;;;;8.10;3.50;;;19.40;78.40;;;;;;10567368;28;20304;-23
2021/06/10 19:49:00;;;;;;;7.10;3.63;;;19.40;78.40;;;;;;10558733;28;20207;-23
2021/06/10 19:54:22;;;;;;;6.43;3.27;;;19.40;78.50;;;;;;10560849;28;20231;-23
2021/06/10 19:59:44;;;;;;;3.20;2.90;;;19.40;78.50;;;;;;10572592;28;20203;-23
2021/06/10 20:05:07;;;;;;;5.00;3.40;;;19.40;78.40;;;;;;10565586;28;20203;-23
2021/06/10 20:10:29;;;;;;;5.20;3.20;;;19.30;78.40;;;;;;10579969;28;20244;-23
2021/06/10 20:15:51;;;;;;;3.90;3.50;;;19.30;78.50;;;;;;10579508;28;20222;-23
2021/06/10 20:21:14;;;;;;;3.40;3.10;;;19.40;78.50;;;;;;10573409;28;20252;-22
2021/06/10 20:26:41;;;;;;;3.30;3.00;;;19.30;78.50;;;;;;10578521;28;20332;-24
2021/06/10 20:32:03;;;;;;;3.57;2.87;;;19.30;78.60;;;;;;10560035;28;20206;-22
2021/06/10 20:37:26;;;;;;;3.70;3.40;;;19.30;78.50;;;;;;10577686;28;20723;-22
2021/06/10 20:42:48;;;;;;;5.33;3.47;;;19.30;78.50;;;;;;10567303;28;20260;-21
2021/06/10 20:48:11;;;;;;;3.23;2.97;;;19.40;78.60;;;;;;10554972;28;20203;-21
2021/06/10 20:53:34;;;;;;;3.47;3.27;;;19.30;78.50;;;;;;10564866;28;20674;-22
2021/06/10 20:58:55;;;;;;;4.67;3.23;;;19.40;78.50;;;;;;10564368;28;20215;-23
2021/06/10 21:04:17;;;;;;;3.63;3.33;;;19.30;78.60;;;;;;10577655;28;20196;-22
2021/06/10 21:09:43;;;;;;;3.70;3.40;;;19.30;78.60;;;;;;10557829;28;20677;-22
2021/06/10 21:15:06;;;;;;;4.17;3.20;;;19.30;78.50;;;;;;10555118;28;20226;-22
2021/06/10 21:20:28;;;;;;;3.07;2.87;;;19.30;78.50;;;;;;10590944;22;20610;-24
2021/06/10 21:25:51;;;;;;;3.13;2.83;;;19.30;78.50;;;;;;10578506;28;20191;-24
2021/06/10 21:31:12;;;;;;;3.43;3.13;;;19.30;78.50;;;;;;10578048;28;20219;-25
2021/06/10 21:36:34;;;;;;;3.23;2.93;;;19.30;78.50;;;;;;10563507;28;20211;-26
2021/06/10 21:41:57;;;;;;;2.97;2.70;;;19.40;78.70;;;;;;10541659;28;20198;-26
2021/06/10 21:47:19;;;;;;;3.43;3.13;;;19.30;78.50;;;;;;10547793;28;20211;-25
2021/06/10 21:52:41;;;;;;;4.37;2.87;;;19.30;78.50;;;;;;10577030;28;20195;-26
2021/06/10 21:58:03;;;;;;;3.07;2.87;;;19.30;78.50;;;;;;10556977;28;20220;-25
2021/06/10 22:03:25;;;;;;;3.07;2.80;;;19.40;78.60;;;;;;10568329;28;20281;-25
2021/06/10 22:08:47;;;;;;;4.30;3.10;;;19.30;78.60;;;;;;10494167;28;20208;-25
2021/06/10 22:14:10;;;;;;;3.13;2.93;;;19.30;78.60;;;;;;10509911;28;20191;-24
2021/06/10 22:19:33;;;;;;;5.13;3.10;;;19.30;78.60;;;;;;10561146;28;20300;-24
2021/06/10 22:24:57;;;;;;;3.07;2.83;;;19.30;78.60;;;;;;10535618;28;20275;-24
2021/06/10 22:30:22;;;;;;;3.17;2.97;;;19.30;78.60;;;;;;10542170;28;20294;-25
2021/06/10 22:35:46;;;;;;;3.10;2.80;;;19.30;78.60;;;;;;10541823;28;20720;-25
2021/06/10 22:41:08;;;;;;;3.43;3.13;;;19.30;78.70;;;;;;10579946;28;20223;-28
2021/06/10 22:46:31;;;;;;;3.87;3.27;;;19.30;78.70;;;;;;10584404;28;20191;-25
2021/06/10 22:51:52;;;;;;;3.43;3.13;;;19.30;78.70;;;;;;10585141;28;20187;-25
2021/06/10 22:57:14;;;;;;;3.33;3.07;;;19.30;78.60;;;;;;10560280;28;20951;-26
2021/06/10 23:02:37;;;;;;;3.10;2.80;;;19.30;78.60;;;;;;10542020;28;20199;-25
2021/06/10 23:07:59;;;;;;;3.20;2.83;;;19.30;78.70;;;;;;10541323;28;20216;-24
2021/06/10 23:13:20;;;;;;;3.23;3.03;;;19.30;78.70;;;;;;10541280;28;20206;-25
2021/06/10 23:18:44;;;;;;;3.27;3.00;;;19.30;78.70;;;;;;10538100;28;20563;-26
2021/06/10 23:24:06;;;;;;;3.10;2.90;;;19.30;78.70;;;;;;10540651;28;20195;-24
2021/06/10 23:29:27;;;;;;;2.90;2.70;;;19.30;78.80;;;;;;10541332;28;20212;-25
2021/06/10 23:34:50;;;;;;;3.13;2.93;;;19.30;78.70;;;;;;10539703;28;20593;-26
2021/06/10 23:40:13;;;;;;;3.37;3.07;;;19.30;78.70;;;;;;10573253;28;20218;-26
2021/06/10 23:45:35;;;;;;;3.30;3.10;;;19.30;79.20;;;;;;10536101;28;20729;-23
2021/06/10 23:50:58;;;;;;;3.07;2.87;;;19.30;78.70;;;;;;10499211;28;20222;-25
2021/06/10 23:56:19;;;;;;;3.03;2.83;;;19.30;78.70;;;;;;10497789;28;20270;-25
